Sayre, OK (73662)

4:25 PM CST on January 29, 2015 (GMT -0600)
Western Oklahoma | Change Station
CLOSE
Current Station
Personal Weather Station
Location: Erick, OK
Elevation: 1978 ft
Nearby Weather Stations

Elev 1978 ft 35.25 °N, 99.79 °W | Updated 6 seconds ago

Partly Cloudy
Partly Cloudy
51.4 °F
Feels Like 51.4 °F
N
2.5
Wind Variable Wind from WSW
Gusts 4.9 mph

Today
High -- | Low -- °F
--% Chance of Precip.
Yesterday
High -- | Low -- °F
Precip. -- in
7:40 AM 6:03 PM
Waxing Gibbous, 77% visible
Pressure 30.46 in
Visibility 10.0 miles
Clouds Clear
Dew Point 28 °F
Humidity 40%
Rainfall 0.00 in
Snow Depth Not available.
UV 2 out of 12
Pollen 6.40 out of 12
Air Quality Not available.
Flu Activity Not available.
METAR KCSM 292153Z 36016KT 10SM CLR 09/M03 A3046 RMK AO2 SLP313 T00941028

More Conditions Fewer Conditions

Pressure 30.46 in
Visibility 10.0 miles
Clouds Clear
Dew Point 28 °F
Humidity 40%
Rainfall 0.00 in
Snow Depth Not available.
UV 2 out of 12
Pollen 6.40 out of 12
Air Quality Not available.
Flu Activity Not available.
METAR KCSM 292153Z 36016KT 10SM CLR 09/M03 A3046 RMK AO2 SLP313 T00941028

More Conditions Fewer Conditions

10-Day Weather Forecast

Almanac

Astronomy

Jan. 29, 2015 Rise Set
Actual Time
Civil Twilight
Nautical Twilight
Astronomical Twilight
Moon
Length of Visible Light
Length of Day
Tomorrow will be .
, % of the Moon is Illuminated

Today's Extremes

State Highs State Lows

Community

WunderPhotos

Upload Photos

1,791,629 photos uploaded!

WunderBlogs® & News

Nearby

Air Quality

  Air Quality AQ Index Pollutant
Not available.

Snow Depth

Station Depth Elevation

Earthquake Activity

City Distance Mag. Time & Date
Minimum magnitude displayed is 2.5.

Coastal Water Temperatures

Place Temperature

Nearby Weather Stations